sensor_id;sensor_type;location;lat;lon;timestamp;pressure;altitude;pressure_sealevel;temperature;humidity
46347;BME280;32057;47.830;19.046;2023-04-01T00:01:18;98791.19;;;9.90;100.00
46347;BME280;32057;47.830;19.046;2023-04-01T00:03:44;98777.31;;;9.88;100.00
46347;BME280;32057;47.830;19.046;2023-04-01T00:06:13;98779.03;;;9.90;100.00
46347;BME280;32057;47.830;19.046;2023-04-01T00:08:39;98783.38;;;9.96;100.00
46347;BME280;32057;47.830;19.046;2023-04-01T00:11:05;98782.50;;;9.92;100.00
46347;BME280;32057;47.830;19.046;2023-04-01T00:13:30;98779.09;;;9.81;100.00
46347;BME280;32057;47.830;19.046;2023-04-01T00:15:56;98773.88;;;9.84;100.00
46347;BME280;32057;47.830;19.046;2023-04-01T00:18:22;98787.72;;;9.86;100.00
46347;BME280;32057;47.830;19.046;2023-04-01T00:20:49;98787.72;;;9.80;100.00
46347;BME280;32057;47.830;19.046;2023-04-01T00:23:15;98789.47;;;9.80;100.00
46347;BME280;32057;47.830;19.046;2023-04-01T00:25:41;98800.72;;;9.75;100.00
46347;BME280;32057;47.830;19.046;2023-04-01T00:28:07;98791.22;;;9.70;100.00
46347;BME280;32057;47.830;19.046;2023-04-01T00:30:32;98790.34;;;9.60;100.00
46347;BME280;32057;47.830;19.046;2023-04-01T00:32:58;98799.91;;;9.43;100.00
46347;BME280;32057;47.830;19.046;2023-04-01T00:35:23;98815.44;;;9.50;100.00
46347;BME280;32057;47.830;19.046;2023-04-01T00:37:49;98802.50;;;9.43;100.00
46347;BME280;32057;47.830;19.046;2023-04-01T00:40:36;98802.47;;;9.46;100.00
46347;BME280;32057;47.830;19.046;2023-04-01T00:43:03;98807.66;;;9.46;100.00
46347;BME280;32057;47.830;19.046;2023-04-01T00:45:34;98795.56;;;9.43;100.00
46347;BME280;32057;47.830;19.046;2023-04-01T00:48:06;98802.50;;;9.43;100.00
46347;BME280;32057;47.830;19.046;2023-04-01T00:50:33;98797.28;;;9.43;100.00
46347;BME280;32057;47.830;19.046;2023-04-01T00:53:00;98800.75;;;9.43;100.00
46347;BME280;32057;47.830;19.046;2023-04-01T00:55:29;98792.09;;;9.49;100.00
46347;BME280;32057;47.830;19.046;2023-04-01T00:57:57;98783.44;;;9.53;100.00
46347;BME280;32057;47.830;19.046;2023-04-01T01:00:23;98782.59;;;9.51;100.00
46347;BME280;32057;47.830;19.046;2023-04-01T01:02:50;98780.84;;;9.53;100.00
46347;BME280;32057;47.830;19.046;2023-04-01T01:05:16;98780.81;;;9.48;100.00
46347;BME280;32057;47.830;19.046;2023-04-01T01:10:23;98779.09;;;9.46;100.00
46347;BME280;32057;47.830;19.046;2023-04-01T01:13:20;98774.78;;;9.54;100.00
46347;BME280;32057;47.830;19.046;2023-04-01T01:15:58;98785.16;;;9.48;100.00
46347;BME280;32057;47.830;19.046;2023-04-01T01:18:39;98786.91;;;9.53;100.00
46347;BME280;32057;47.830;19.046;2023-04-01T01:37:24;98772.19;;;9.54;100.00
46347;BME280;32057;47.830;19.046;2023-04-01T01:39:57;98773.91;;;9.33;100.00
46347;BME280;32057;47.830;19.046;2023-04-01T01:42:25;98778.25;;;9.25;100.00
46347;BME280;32057;47.830;19.046;2023-04-01T01:44:52;98768.72;;;9.38;100.00
46347;BME280;32057;47.830;19.046;2023-04-01T01:47:19;98777.41;;;9.45;100.00
46347;BME280;32057;47.830;19.046;2023-04-01T01:49:46;98781.72;;;9.49;100.00
46347;BME280;32057;47.830;19.046;2023-04-01T01:52:12;98779.13;;;9.49;100.00
46347;BME280;32057;47.830;19.046;2023-04-01T01:54:51;98778.22;;;9.48;100.00
46347;BME280;32057;47.830;19.046;2023-04-01T01:57:20;98777.38;;;9.46;100.00
46347;BME280;32057;47.830;19.046;2023-04-01T01:59:47;98780.84;;;9.42;100.00
46347;BME280;32057;47.830;19.046;2023-04-01T02:02:14;98785.19;;;9.51;100.00
46347;BME280;32057;47.830;19.046;2023-04-01T02:04:42;98783.44;;;9.50;100.00
46347;BME280;32057;47.830;19.046;2023-04-01T02:07:14;98784.28;;;9.52;100.00
46347;BME280;32057;47.830;19.046;2023-04-01T02:09:41;98786.91;;;9.49;100.00
46347;BME280;32057;47.830;19.046;2023-04-01T02:12:09;98792.09;;;9.46;100.00
46347;BME280;32057;47.830;19.046;2023-04-01T02:17:10;98778.25;;;9.19;100.00
46347;BME280;32057;47.830;19.046;2023-04-01T02:19:39;98773.06;;;9.13;100.00
46347;BME280;32057;47.830;19.046;2023-04-01T02:22:09;98770.44;;;9.05;100.00
46347;BME280;32057;47.830;19.046;2023-04-01T02:24:37;98767.81;;;8.97;100.00
46347;BME280;32057;47.830;19.046;2023-04-01T02:27:05;98767.81;;;8.91;100.00
46347;BME280;32057;47.830;19.046;2023-04-01T02:29:31;98758.31;;;8.92;100.00
46347;BME280;32057;47.830;19.046;2023-04-01T02:31:57;98753.13;;;8.89;100.00
46347;BME280;32057;47.830;19.046;2023-04-01T02:34:24;98748.78;;;8.94;100.00
46347;BME280;32057;47.830;19.046;2023-04-01T02:36:50;98756.59;;;8.97;100.00
46347;BME280;32057;47.830;19.046;2023-04-01T02:39:16;98749.69;;;9.07;100.00
46347;BME280;32057;47.830;19.046;2023-04-01T02:41:44;98752.28;;;9.13;100.00
46347;BME280;32057;47.830;19.046;2023-04-01T02:44:11;98746.22;;;9.11;100.00
46347;BME280;32057;47.830;19.046;2023-04-01T02:46:37;98748.81;;;9.05;100.00
46347;BME280;32057;47.830;19.046;2023-04-01T02:49:03;98740.16;;;9.07;100.00
46347;BME280;32057;47.830;19.046;2023-04-01T02:51:28;98741.91;;;9.07;100.00
46347;BME280;32057;47.830;19.046;2023-04-01T02:53:54;98741.03;;;9.05;100.00
46347;BME280;32057;47.830;19.046;2023-04-01T02:56:20;98741.91;;;9.10;100.00
46347;BME280;32057;47.830;19.046;2023-04-01T02:58:46;98738.44;;;9.12;100.00
46347;BME280;32057;47.830;19.046;2023-04-01T03:01:12;98745.34;;;9.12;100.00
46347;BME280;32057;47.830;19.046;2023-04-01T03:03:37;98747.09;;;9.05;100.00
46347;BME280;32057;47.830;19.046;2023-04-01T03:06:07;98744.47;;;9.08;100.00
46347;BME280;32057;47.830;19.046;2023-04-01T03:08:33;98743.59;;;8.98;100.00
46347;BME280;32057;47.830;19.046;2023-04-01T03:10:59;98747.91;;;8.86;100.00
46347;BME280;32057;47.830;19.046;2023-04-01T03:13:24;98749.63;;;8.73;100.00
46347;BME280;32057;47.830;19.046;2023-04-01T03:15:50;98747.00;;;8.64;100.00
46347;BME280;32057;47.830;19.046;2023-04-01T03:18:15;98750.44;;;8.53;100.00
46347;BME280;32057;47.830;19.046;2023-04-01T03:20:40;98748.69;;;8.52;100.00
46347;BME280;32057;47.830;19.046;2023-04-01T03:23:07;98742.63;;;8.46;100.00
46347;BME280;32057;47.830;19.046;2023-04-01T03:25:33;98736.56;;;8.42;100.00
46347;BME280;32057;47.830;19.046;2023-04-01T03:27:58;98734.81;;;8.40;100.00
46347;BME280;32057;47.830;19.046;2023-04-01T03:30:25;98727.88;;;8.40;100.00
46347;BME280;32057;47.830;19.046;2023-04-01T03:32:51;98736.53;;;8.39;100.00
46347;BME280;32057;47.830;19.046;2023-04-01T03:35:16;98734.84;;;8.46;100.00
46347;BME280;32057;47.830;19.046;2023-04-01T03:37:42;98751.28;;;8.52;100.00
46347;BME280;32057;47.830;19.046;2023-04-01T03:40:08;98749.56;;;8.47;100.00
46347;BME280;32057;47.830;19.046;2023-04-01T03:42:33;98766.88;;;8.60;100.00
46347;BME280;32057;47.830;19.046;2023-04-01T03:45:00;98766.00;;;8.63;100.00
46347;BME280;32057;47.830;19.046;2023-04-01T03:47:25;98772.94;;;8.64;100.00
46347;BME280;32057;47.830;19.046;2023-04-01T03:49:50;98769.47;;;8.60;100.00
46347;BME280;32057;47.830;19.046;2023-04-01T03:52:16;98777.22;;;8.58;100.00
46347;BME280;32057;47.830;19.046;2023-04-01T03:54:41;98786.75;;;8.60;100.00
46347;BME280;32057;47.830;19.046;2023-04-01T03:57:07;98785.88;;;8.51;100.00
46347;BME280;32057;47.830;19.046;2023-04-01T03:59:32;98787.56;;;8.48;100.00
46347;BME280;32057;47.830;19.046;2023-04-01T04:01:57;98791.88;;;8.41;100.00
46347;BME280;32057;47.830;19.046;2023-04-01T04:04:23;98790.06;;;8.34;100.00
46347;BME280;32057;47.830;19.046;2023-04-01T04:06:48;98796.97;;;8.29;100.00
46347;BME280;32057;47.830;19.046;2023-04-01T04:09:14;98801.31;;;8.33;100.00
46347;BME280;32057;47.830;19.046;2023-04-01T04:11:39;98807.44;;;8.44;100.00
46347;BME280;32057;47.830;19.046;2023-04-01T04:14:05;98806.56;;;8.48;100.00
46347;BME280;32057;47.830;19.046;2023-04-01T04:16:30;98809.16;;;8.48;100.00
46347;BME280;32057;47.830;19.046;2023-04-01T04:18:56;98799.66;;;8.50;100.00
46347;BME280;32057;47.830;19.046;2023-04-01T04:21:21;98806.59;;;8.54;100.00
46347;BME280;32057;47.830;19.046;2023-04-01T04:23:47;98816.09;;;8.52;100.00
46347;BME280;32057;47.830;19.046;2023-04-01T04:26:14;98821.28;;;8.45;100.00
46347;BME280;32057;47.830;19.046;2023-04-01T04:28:40;98809.09;;;8.36;100.00
46347;BME280;32057;47.830;19.046;2023-04-01T04:31:06;98796.91;;;8.18;100.00
46347;BME280;32057;47.830;19.046;2023-04-01T04:33:33;98794.31;;;8.13;100.00
46347;BME280;32057;47.830;19.046;2023-04-01T04:36:00;98787.41;;;8.18;100.00
46347;BME280;32057;47.830;19.046;2023-04-01T04:38:26;98786.53;;;8.18;100.00
46347;BME280;32057;47.830;19.046;2023-04-01T04:40:52;98785.69;;;8.19;100.00
46347;BME280;32057;47.830;19.046;2023-04-01T04:43:18;98783.97;;;8.21;100.00
46347;BME280;32057;47.830;19.046;2023-04-01T04:45:44;98790.00;;;8.15;100.00
46347;BME280;32057;47.830;19.046;2023-04-01T04:48:14;98784.78;;;8.12;100.00
46347;BME280;32057;47.830;19.046;2023-04-01T04:50:45;98789.97;;;8.09;100.00
46347;BME280;32057;47.830;19.046;2023-04-01T04:53:12;98796.00;;;8.14;100.00
46347;BME280;32057;47.830;19.046;2023-04-01T04:55:43;98795.22;;;8.26;100.00
46347;BME280;32057;47.830;19.046;2023-04-01T04:58:08;98799.56;;;8.36;100.00
46347;BME280;32057;47.830;19.046;2023-04-01T05:00:33;98789.31;;;8.47;100.00
46347;BME280;32057;47.830;19.046;2023-04-01T05:02:59;98780.69;;;8.53;100.00
46347;BME280;32057;47.830;19.046;2023-04-01T05:05:25;98788.47;;;8.57;100.00
46347;BME280;32057;47.830;19.046;2023-04-01T05:07:50;98785.06;;;8.74;100.00
46347;BME280;32057;47.830;19.046;2023-04-01T05:10:16;98788.53;;;8.76;100.00
46347;BME280;32057;47.830;19.046;2023-04-01T05:12:41;98780.75;;;8.76;100.00
46347;BME280;32057;47.830;19.046;2023-04-01T05:15:07;98783.38;;;8.91;100.00
46347;BME280;32057;47.830;19.046;2023-04-01T05:17:33;98792.06;;;9.12;100.00
46347;BME280;32057;47.830;19.046;2023-04-01T05:19:59;98791.22;;;9.30;100.00
46347;BME280;32057;47.830;19.046;2023-04-01T05:22:24;98792.94;;;9.63;100.00
46347;BME280;32057;47.830;19.046;2023-04-01T05:24:50;98786.84;;;9.92;100.00
46347;BME280;32057;47.830;19.046;2023-04-01T05:27:16;98785.09;;;10.09;100.00
46347;BME280;32057;47.830;19.046;2023-04-01T05:29:41;98779.81;;;10.26;100.00
46347;BME280;32057;47.830;19.046;2023-04-01T05:32:07;98778.09;;;10.24;100.00
46347;BME280;32057;47.830;19.046;2023-04-01T05:34:32;98779.88;;;10.06;100.00
46347;BME280;32057;47.830;19.046;2023-04-01T05:36:57;98784.25;;;9.96;100.00
46347;BME280;32057;47.830;19.046;2023-04-01T05:39:23;98788.59;;;9.82;100.00
46347;BME280;32057;47.830;19.046;2023-04-01T05:41:49;98784.22;;;10.06;100.00
46347;BME280;32057;47.830;19.046;2023-04-01T05:44:14;98777.97;;;10.67;100.00
46347;BME280;32057;47.830;19.046;2023-04-01T05:46:40;98783.94;;;10.84;100.00
46347;BME280;32057;47.830;19.046;2023-04-01T05:49:05;98789.56;;;11.51;100.00
46347;BME280;32057;47.830;19.046;2023-04-01T05:51:31;98790.97;;;11.86;99.14
46347;BME280;32057;47.830;19.046;2023-04-01T05:53:56;98792.16;;;11.49;100.00
46347;BME280;32057;47.830;19.046;2023-04-01T05:56:22;98790.75;;;11.04;100.00
46347;BME280;32057;47.830;19.046;2023-04-01T05:58:51;98791.75;;;10.81;100.00
46347;BME280;32057;47.830;19.046;2023-04-01T06:01:18;98788.47;;;10.42;100.00
46347;BME280;32057;47.830;19.046;2023-04-01T06:03:44;98792.81;;;10.34;100.00
46347;BME280;32057;47.830;19.046;2023-04-01T06:06:19;98802.41;;;10.16;100.00
46347;BME280;32057;47.830;19.046;2023-04-01T06:08:48;98800.69;;;10.00;100.00
46347;BME280;32057;47.830;19.046;2023-04-01T06:11:26;98806.75;;;10.14;100.00
46347;BME280;32057;47.830;19.046;2023-04-01T06:17:02;98794.56;;;10.20;100.00
46347;BME280;32057;47.830;19.046;2023-04-01T06:34:14;98791.06;;;10.44;100.00
46347;BME280;32057;47.830;19.046;2023-04-01T06:40:03;98791.88;;;10.60;100.00
46347;BME280;32057;47.830;19.046;2023-04-01T06:42:38;98790.09;;;10.71;100.00
46347;BME280;32057;47.830;19.046;2023-04-01T06:48:37;98807.25;;;11.00;100.00
46347;BME280;32057;47.830;19.046;2023-04-01T06:54:28;98802.78;;;11.22;100.00
46347;BME280;32057;47.830;19.046;2023-04-01T06:57:05;98804.50;;;11.27;100.00
46347;BME280;32057;47.830;19.046;2023-04-01T06:59:37;98794.81;;;11.43;100.00
46347;BME280;32057;47.830;19.046;2023-04-01T07:04:48;98787.78;;;11.54;99.23
46347;BME280;32057;47.830;19.046;2023-04-01T07:07:38;98788.53;;;11.66;98.73
46347;BME280;32057;47.830;19.046;2023-04-01T07:10:18;98799.06;;;11.56;98.62
46347;BME280;32057;47.830;19.046;2023-04-01T07:12:53;98792.03;;;11.65;97.62
46347;BME280;32057;47.830;19.046;2023-04-01T07:15:57;98794.75;;;11.51;93.78
46347;BME280;32057;47.830;19.046;2023-04-01T07:18:30;98792.88;;;11.68;96.21
46347;BME280;32057;47.830;19.046;2023-04-01T07:20:57;98786.78;;;11.71;97.04
46347;BME280;32057;47.830;19.046;2023-04-01T07:23:27;98782.38;;;11.77;95.86
46347;BME280;32057;47.830;19.046;2023-04-01T07:25:59;98788.25;;;12.01;95.56
46347;BME280;32057;47.830;19.046;2023-04-01T07:28:30;98792.63;;;11.96;90.80
46347;BME280;32057;47.830;19.046;2023-04-01T07:31:13;98790.97;;;11.90;88.83
46347;BME280;32057;47.830;19.046;2023-04-01T07:34:04;98798.75;;;11.95;91.12
46347;BME280;32057;47.830;19.046;2023-04-01T07:41:52;98796.63;;;12.32;87.78
46347;BME280;32057;47.830;19.046;2023-04-01T07:44:28;98793.91;;;12.40;89.81
46347;BME280;32057;47.830;19.046;2023-04-01T07:52:48;98808.81;;;12.29;89.41
46347;BME280;32057;47.830;19.046;2023-04-01T07:55:24;98803.84;;;12.06;90.02
46347;BME280;32057;47.830;19.046;2023-04-01T08:00:51;98796.78;;;12.19;88.98
46347;BME280;32057;47.830;19.046;2023-04-01T08:06:33;98802.81;;;12.21;88.80
46347;BME280;32057;47.830;19.046;2023-04-01T08:20:46;98827.88;;;11.32;94.78
46347;BME280;32057;47.830;19.046;2023-04-01T08:23:21;98825.28;;;11.33;95.96
46347;BME280;32057;47.830;19.046;2023-04-01T08:28:50;98824.28;;;11.50;97.58
46347;BME280;32057;47.830;19.046;2023-04-01T08:33:55;98827.63;;;11.66;97.72
46347;BME280;32057;47.830;19.046;2023-04-01T08:36:24;98824.06;;;11.76;98.39
46347;BME280;32057;47.830;19.046;2023-04-01T08:39:06;98816.22;;;11.79;97.45
46347;BME280;32057;47.830;19.046;2023-04-01T08:47:34;98813.84;;;11.53;94.52
46347;BME280;32057;47.830;19.046;2023-04-01T08:50:23;98819.81;;;11.69;94.72
46347;BME280;32057;47.830;19.046;2023-04-01T09:03:28;98809.44;;;12.51;92.11
46347;BME280;32057;47.830;19.046;2023-04-01T09:06:19;98820.88;;;12.39;89.86
46347;BME280;32057;47.830;19.046;2023-04-01T09:09:01;98814.91;;;12.28;89.46
46347;BME280;32057;47.830;19.046;2023-04-01T09:15:00;98819.41;;;12.15;89.73
46347;BME280;32057;47.830;19.046;2023-04-01T09:17:57;98819.59;;;11.95;90.05
46347;BME280;32057;47.830;19.046;2023-04-01T09:37:20;98816.78;;;12.17;89.32
46347;BME280;32057;47.830;19.046;2023-04-01T09:53:48;98811.41;;;12.30;88.18
46347;BME280;32057;47.830;19.046;2023-04-01T09:59:23;98822.06;;;12.10;87.21
46347;BME280;32057;47.830;19.046;2023-04-01T10:15:37;98822.56;;;12.42;90.03
46347;BME280;32057;47.830;19.046;2023-04-01T10:27:16;98818.72;;;12.72;85.38
46347;BME280;32057;47.830;19.046;2023-04-01T10:40:56;98816.41;;;13.15;86.53
46347;BME280;32057;47.830;19.046;2023-04-01T10:54:43;98819.84;;;13.77;79.90
46347;BME280;32057;47.830;19.046;2023-04-01T11:06:21;98806.16;;;13.62;79.14
46347;BME280;32057;47.830;19.046;2023-04-01T11:14:37;98798.84;;;13.81;79.09
46347;BME280;32057;47.830;19.046;2023-04-01T11:28:27;98799.84;;;13.18;77.41
46347;BME280;32057;47.830;19.046;2023-04-01T11:44:24;98813.91;;;13.08;82.77
46347;BME280;32057;47.830;19.046;2023-04-01T11:47:40;98811.19;;;13.15;80.13
46347;BME280;32057;47.830;19.046;2023-04-01T11:55:59;98813.00;;;13.68;79.77
46347;BME280;32057;47.830;19.046;2023-04-01T12:09:16;98823.50;;;13.66;76.21
46347;BME280;32057;47.830;19.046;2023-04-01T12:33:48;98813.63;;;14.32;71.68
46347;BME280;32057;47.830;19.046;2023-04-01T12:45:11;98798.00;;;14.72;71.47
46347;BME280;32057;47.830;19.046;2023-04-01T12:53:10;98786.63;;;15.14;68.56
46347;BME280;32057;47.830;19.046;2023-04-01T12:55:40;98786.25;;;15.29;69.00
46347;BME280;32057;47.830;19.046;2023-04-01T13:17:36;98782.84;;;14.88;64.08
46347;BME280;32057;47.830;19.046;2023-04-01T13:28:20;98775.91;;;15.59;62.17
46347;BME280;32057;47.830;19.046;2023-04-01T13:33:47;98773.44;;;15.17;61.58
46347;BME280;32057;47.830;19.046;2023-04-01T13:44:40;98772.53;;;15.20;63.11
46347;BME280;32057;47.830;19.046;2023-04-01T13:55:55;98790.81;;;15.21;60.52
46347;BME280;32057;47.830;19.046;2023-04-01T14:01:41;98780.31;;;15.21;59.30
46347;BME280;32057;47.830;19.046;2023-04-01T14:04:39;98781.88;;;14.91;58.72
46347;BME280;32057;47.830;19.046;2023-04-01T14:13:06;98785.22;;;15.37;61.92
46347;BME280;32057;47.830;19.046;2023-04-01T14:16:03;98781.00;;;15.65;58.08
46347;BME280;32057;47.830;19.046;2023-04-01T14:21:39;98777.50;;;15.30;56.67
46347;BME280;32057;47.830;19.046;2023-04-01T14:27:19;98811.16;;;14.24;63.15
46347;BME280;32057;47.830;19.046;2023-04-01T14:32:39;98833.13;;;13.64;67.53
46347;BME280;32057;47.830;19.046;2023-04-01T14:41:02;98826.16;;;13.04;69.30
46347;BME280;32057;47.830;19.046;2023-04-01T14:51:45;98822.81;;;12.94;68.96
46347;BME280;32057;47.830;19.046;2023-04-01T14:54:13;98825.41;;;12.94;69.83
46347;BME280;32057;47.830;19.046;2023-04-01T14:56:51;98818.44;;;12.95;68.45
46347;BME280;32057;47.830;19.046;2023-04-01T14:59:28;98816.75;;;12.92;68.74
46347;BME280;32057;47.830;19.046;2023-04-01T15:02:25;98816.75;;;12.92;69.41
46347;BME280;32057;47.830;19.046;2023-04-01T15:05:45;98820.19;;;12.94;70.32
46347;BME280;32057;47.830;19.046;2023-04-01T15:13:45;98825.28;;;13.04;70.26
46347;BME280;32057;47.830;19.046;2023-04-01T15:21:44;98825.06;;;13.18;71.35
46347;BME280;32057;47.830;19.046;2023-04-01T15:30:23;98831.97;;;13.25;70.27
46347;BME280;32057;47.830;19.046;2023-04-01T15:35:36;98830.16;;;13.28;71.06
46347;BME280;32057;47.830;19.046;2023-04-01T15:41:07;98838.78;;;13.37;71.10
46347;BME280;32057;47.830;19.046;2023-04-01T15:43:49;98843.16;;;13.36;70.76
46347;BME280;32057;47.830;19.046;2023-04-01T15:46:46;98839.66;;;13.35;71.05
46347;BME280;32057;47.830;19.046;2023-04-01T15:49:32;98851.00;;;13.34;71.08
46347;BME280;32057;47.830;19.046;2023-04-01T16:00:06;98846.66;;;13.33;70.70
46347;BME280;32057;47.830;19.046;2023-04-01T16:05:20;98858.88;;;13.31;68.67
46347;BME280;32057;47.830;19.046;2023-04-01T16:21:48;98863.56;;;13.06;68.49
46347;BME280;32057;47.830;19.046;2023-04-01T16:29:55;98866.28;;;12.95;68.15
46347;BME280;32057;47.830;19.046;2023-04-01T16:37:54;98878.50;;;12.93;67.75
46347;BME280;32057;47.830;19.046;2023-04-01T16:43:16;98883.66;;;13.00;70.10
46347;BME280;32057;47.830;19.046;2023-04-01T16:51:21;98895.94;;;12.91;69.28
46347;BME280;32057;47.830;19.046;2023-04-01T16:54:02;98892.47;;;12.92;71.70
46347;BME280;32057;47.830;19.046;2023-04-01T16:59:46;98897.78;;;12.82;71.29
46347;BME280;32057;47.830;19.046;2023-04-01T17:02:17;98910.03;;;12.78;72.68
46347;BME280;32057;47.830;19.046;2023-04-01T17:17:57;98926.13;;;12.32;74.30
46347;BME280;32057;47.830;19.046;2023-04-01T17:20:28;98922.69;;;12.30;77.47
46347;BME280;32057;47.830;19.046;2023-04-01T17:23:01;98923.63;;;12.24;76.94
46347;BME280;32057;47.830;19.046;2023-04-01T17:28:14;98927.28;;;12.05;76.80
46347;BME280;32057;47.830;19.046;2023-04-01T17:36:51;98932.75;;;11.66;75.01
46347;BME280;32057;47.830;19.046;2023-04-01T17:42:19;98945.69;;;11.74;76.24
46347;BME280;32057;47.830;19.046;2023-04-01T17:44:59;98937.03;;;11.72;76.49
46347;BME280;32057;47.830;19.046;2023-04-01T17:47:44;98935.25;;;11.74;78.87
46347;BME280;32057;47.830;19.046;2023-04-01T17:50:21;98941.41;;;11.68;78.99
46347;BME280;32057;47.830;19.046;2023-04-01T17:55:46;98941.47;;;11.56;77.89
46347;BME280;32057;47.830;19.046;2023-04-01T17:58:28;98941.53;;;11.45;77.37
46347;BME280;32057;47.830;19.046;2023-04-01T18:03:50;98957.16;;;11.44;80.53
46347;BME280;32057;47.830;19.046;2023-04-01T18:11:42;98973.75;;;11.24;82.01
46347;BME280;32057;47.830;19.046;2023-04-01T18:22:39;98987.72;;;11.03;83.77
46347;BME280;32057;47.830;19.046;2023-04-01T18:27:45;98986.03;;;10.85;85.11
46347;BME280;32057;47.830;19.046;2023-04-01T18:30:26;98990.38;;;10.74;86.05
46347;BME280;32057;47.830;19.046;2023-04-01T18:33:03;98989.53;;;10.69;86.46
46347;BME280;32057;47.830;19.046;2023-04-01T18:41:12;99001.72;;;10.54;87.65
46347;BME280;32057;47.830;19.046;2023-04-01T18:43:57;99004.28;;;10.42;88.60
46347;BME280;32057;47.830;19.046;2023-04-01T18:49:21;99007.75;;;10.29;88.37
46347;BME280;32057;47.830;19.046;2023-04-01T18:52:03;99006.88;;;10.24;88.53
46347;BME280;32057;47.830;19.046;2023-04-01T18:57:49;99016.34;;;9.83;89.64
46347;BME280;32057;47.830;19.046;2023-04-01T19:00:28;99013.78;;;9.91;90.50
46347;BME280;32057;47.830;19.046;2023-04-01T19:05:33;99013.78;;;9.91;89.97
46347;BME280;32057;47.830;19.046;2023-04-01T19:08:25;99013.78;;;9.91;90.27
46347;BME280;32057;47.830;19.046;2023-04-01T19:19:02;99025.00;;;9.88;89.38
46347;BME280;32057;47.830;19.046;2023-04-01T19:21:41;99025.88;;;9.90;89.73
46347;BME280;32057;47.830;19.046;2023-04-01T19:43:54;99034.22;;;9.02;96.08
46347;BME280;32057;47.830;19.046;2023-04-01T19:51:44;99037.50;;;8.76;97.19
46347;BME280;32057;47.830;19.046;2023-04-01T19:54:28;99035.72;;;8.66;97.64
46347;BME280;32057;47.830;19.046;2023-04-01T19:59:49;99041.72;;;8.60;100.00
46347;BME280;32057;47.830;19.046;2023-04-01T20:02:43;99037.31;;;8.50;98.90
46347;BME280;32057;47.830;19.046;2023-04-01T20:05:30;99041.34;;;8.17;98.74
46347;BME280;32057;47.830;19.046;2023-04-01T20:08:28;99044.56;;;7.96;100.00
46347;BME280;32057;47.830;19.046;2023-04-01T20:11:14;99048.72;;;7.77;100.00
46347;BME280;32057;47.830;19.046;2023-04-01T20:14:07;99043.38;;;7.63;100.00
46347;BME280;32057;47.830;19.046;2023-04-01T20:17:15;99045.09;;;7.64;100.00
46347;BME280;32057;47.830;19.046;2023-04-01T20:20:00;99048.47;;;7.57;100.00
46347;BME280;32057;47.830;19.046;2023-04-01T20:22:51;99048.25;;;7.40;100.00
46347;BME280;32057;47.830;19.046;2023-04-01T20:44:12;99057.59;;;7.27;100.00
46347;BME280;32057;47.830;19.046;2023-04-01T20:49:15;99054.22;;;7.34;100.00
46347;BME280;32057;47.830;19.046;2023-04-01T20:51:53;99056.81;;;7.33;100.00
46347;BME280;32057;47.830;19.046;2023-04-01T21:00:28;99054.97;;;7.24;100.00
46347;BME280;32057;47.830;19.046;2023-04-01T21:13:46;99072.38;;;6.76;100.00
46347;BME280;32057;47.830;19.046;2023-04-01T21:16:26;99072.97;;;6.57;100.00
46347;BME280;32057;47.830;19.046;2023-04-01T21:21:34;99084.38;;;6.71;100.00
46347;BME280;32057;47.830;19.046;2023-04-01T21:46:31;99100.28;;;6.41;100.00
46347;BME280;32057;47.830;19.046;2023-04-01T22:00:38;99114.78;;;6.34;100.00
46347;BME280;32057;47.830;19.046;2023-04-01T22:09:11;99103.50;;;6.31;100.00
46347;BME280;32057;47.830;19.046;2023-04-01T22:14:29;99111.69;;;6.05;100.00
46347;BME280;32057;47.830;19.046;2023-04-01T22:25:14;99109.09;;;6.05;100.00
46347;BME280;32057;47.830;19.046;2023-04-01T22:27:52;99113.41;;;6.06;100.00
46347;BME280;32057;47.830;19.046;2023-04-01T22:30:47;99118.84;;;5.77;100.00
46347;BME280;32057;47.830;19.046;2023-04-01T22:33:22;99121.19;;;5.65;100.00
46347;BME280;32057;47.830;19.046;2023-04-01T22:43:40;99138.69;;;5.80;100.00
46347;BME280;32057;47.830;19.046;2023-04-01T22:48:42;99141.06;;;5.71;100.00
46347;BME280;32057;47.830;19.046;2023-04-01T22:51:18;99139.81;;;5.52;100.00
46347;BME280;32057;47.830;19.046;2023-04-01T22:56:24;99148.25;;;5.45;100.00
46347;BME280;32057;47.830;19.046;2023-04-01T22:58:59;99145.03;;;5.55;100.00
46347;BME280;32057;47.830;19.046;2023-04-01T23:01:31;99151.19;;;5.60;100.00
46347;BME280;32057;47.830;19.046;2023-04-01T23:03:58;99144.47;;;5.68;100.00
46347;BME280;32057;47.830;19.046;2023-04-01T23:06:28;99144.84;;;5.46;100.00
46347;BME280;32057;47.830;19.046;2023-04-01T23:11:54;99159.72;;;5.18;100.00
46347;BME280;32057;47.830;19.046;2023-04-01T23:19:44;99170.53;;;5.03;100.00
46347;BME280;32057;47.830;19.046;2023-04-01T23:24:51;99169.22;;;4.84;100.00
46347;BME280;32057;47.830;19.046;2023-04-01T23:27:23;99165.84;;;4.87;100.00
46347;BME280;32057;47.830;19.046;2023-04-01T23:29:53;99160.66;;;4.85;100.00
46347;BME280;32057;47.830;19.046;2023-04-01T23:32:19;99168.59;;;4.94;100.00
46347;BME280;32057;47.830;19.046;2023-04-01T23:34:52;99162.69;;;4.98;100.00
46347;BME280;32057;47.830;19.046;2023-04-01T23:37:20;99171.34;;;5.01;100.00
46347;BME280;32057;47.830;19.046;2023-04-01T23:39:52;99168.94;;;5.08;100.00
46347;BME280;32057;47.830;19.046;2023-04-01T23:42:21;99167.25;;;5.10;100.00
46347;BME280;32057;47.830;19.046;2023-04-01T23:44:58;99174.50;;;5.27;100.00
46347;BME280;32057;47.830;19.046;2023-04-01T23:47:38;99169.16;;;5.55;100.00
46347;BME280;32057;47.830;19.046;2023-04-01T23:50:13;99172.94;;;5.73;100.00
46347;BME280;32057;47.830;19.046;2023-04-01T23:52:57;99174.09;;;5.86;100.00
46347;BME280;32057;47.830;19.046;2023-04-01T23:55:31;99169.28;;;6.01;100.00
